createdAt,value
2018-09-08T00:00:45.129Z,20.82
2018-09-08T00:03:14.181Z,20.76
2018-09-08T00:05:43.342Z,20.69
2018-09-08T00:08:12.229Z,20.73
2018-09-08T00:10:41.339Z,20.75
2018-09-08T00:13:10.363Z,20.68
2018-09-08T00:15:44.345Z,20.69
2018-09-08T00:18:18.389Z,20.72
2018-09-08T00:20:52.322Z,20.74
2018-09-08T00:23:26.517Z,20.77
2018-09-08T00:26:00.699Z,20.76
2018-09-08T00:28:36.593Z,20.72
2018-09-08T00:31:05.747Z,20.66
2018-09-08T00:33:34.769Z,20.69
2018-09-08T00:36:03.962Z,20.72
2018-09-08T00:38:33.009Z,20.67
2018-09-08T00:41:02.079Z,20.67
2018-09-08T00:43:31.431Z,20.71
2018-09-08T00:46:00.376Z,20.71
2018-09-08T00:48:29.397Z,20.70
2018-09-08T00:50:58.645Z,20.71
2018-09-08T00:53:31.348Z,20.71
2018-09-08T00:56:00.524Z,20.74
2018-09-08T00:58:29.606Z,20.71
2018-09-08T01:00:58.654Z,20.69
2018-09-08T01:03:27.640Z,20.61
2018-09-08T01:05:56.615Z,20.62
2018-09-08T01:08:25.534Z,20.50
2018-09-08T01:10:54.485Z,20.56
2018-09-08T01:13:23.492Z,20.47
2018-09-08T01:15:52.487Z,20.43
2018-09-08T01:18:21.496Z,20.32
2018-09-08T01:20:50.605Z,20.32
2018-09-08T01:23:19.625Z,20.28
2018-09-08T01:25:49.791Z,20.14
2018-09-08T01:28:18.633Z,20.08
2018-09-08T01:30:48.085Z,20.16
2018-09-08T01:33:17.092Z,20.12
2018-09-08T01:35:46.123Z,20.07
2018-09-08T01:38:15.346Z,20.06
2018-09-08T01:40:44.636Z,19.98
2018-09-08T01:43:13.788Z,19.99
2018-09-08T01:45:42.708Z,19.93
2018-09-08T01:48:11.602Z,19.84
2018-09-08T01:50:40.592Z,19.80
2018-09-08T01:53:09.559Z,19.85
2018-09-08T01:55:38.529Z,19.81
2018-09-08T01:58:07.408Z,19.79
2018-09-08T02:00:36.380Z,19.70
2018-09-08T02:03:05.735Z,19.65
2018-09-08T02:05:37.846Z,19.74
2018-09-08T02:08:07.458Z,19.76
2018-09-08T02:10:36.417Z,19.72
2018-09-08T02:13:05.422Z,19.64
2018-09-08T02:15:34.340Z,19.72
2018-09-08T02:18:03.191Z,19.70
2018-09-08T02:20:31.976Z,19.65
2018-09-08T02:23:01.931Z,19.62
2018-09-08T02:25:30.964Z,19.54
2018-09-08T02:28:03.460Z,19.57
2018-09-08T02:30:32.964Z,19.65
2018-09-08T02:33:01.788Z,19.58
2018-09-08T02:35:30.909Z,19.49
2018-09-08T02:37:59.944Z,19.51
2018-09-08T02:40:29.829Z,19.52
2018-09-08T02:42:58.821Z,19.37
2018-09-08T02:45:27.707Z,19.36
2018-09-08T02:47:56.667Z,19.38
2018-09-08T02:50:36.612Z,19.43
2018-09-08T02:53:04.768Z,19.36
2018-09-08T02:55:32.846Z,19.28
2018-09-08T02:58:00.610Z,19.29
2018-09-08T03:00:28.473Z,19.26
2018-09-08T03:02:55.987Z,19.30
2018-09-08T03:05:23.810Z,19.35
2018-09-08T03:07:51.363Z,19.36
2018-09-08T03:10:19.409Z,19.33
2018-09-08T03:12:46.877Z,19.28
2018-09-08T03:15:14.343Z,19.30
2018-09-08T03:17:41.858Z,19.34
2018-09-08T03:20:09.425Z,19.29
2018-09-08T03:22:36.849Z,19.27
2018-09-08T03:25:04.346Z,19.31
2018-09-08T03:27:31.994Z,19.20
2018-09-08T03:29:59.595Z,19.14
2018-09-08T03:32:27.108Z,19.07
2018-09-08T03:34:58.053Z,19.05
2018-09-08T03:37:25.682Z,18.98
2018-09-08T03:39:53.194Z,18.88
2018-09-08T03:42:20.661Z,18.87
2018-09-08T03:44:48.126Z,18.93
2018-09-08T03:47:15.698Z,18.85
2018-09-08T03:49:43.225Z,18.79
2018-09-08T03:52:10.758Z,18.79
2018-09-08T03:54:38.295Z,18.78
2018-09-08T03:57:06.049Z,18.76
2018-09-08T03:59:33.469Z,18.78
2018-09-08T04:02:00.885Z,18.86
2018-09-08T04:04:29.797Z,18.90
2018-09-08T04:06:58.716Z,18.87
2018-09-08T04:09:27.640Z,18.94
2018-09-08T04:11:56.688Z,19.01
2018-09-08T04:14:25.769Z,19.02
2018-09-08T04:16:55.746Z,19.07
2018-09-08T04:19:24.648Z,19.14
2018-09-08T04:21:53.658Z,19.18
2018-09-08T04:24:22.470Z,19.23
2018-09-08T04:26:52.885Z,19.31
2018-09-08T04:29:21.835Z,19.40
2018-09-08T04:31:50.712Z,19.44
2018-09-08T04:34:19.669Z,19.49
2018-09-08T04:36:48.640Z,19.58
2018-09-08T04:39:17.610Z,19.69
2018-09-08T04:41:47.461Z,19.76
2018-09-08T04:44:16.360Z,19.86
2018-09-08T04:46:45.358Z,19.97
2018-09-08T04:49:14.407Z,20.07
2018-09-08T04:51:43.352Z,20.17
2018-09-08T04:54:12.326Z,20.26
2018-09-08T04:56:41.284Z,20.34
2018-09-08T04:59:11.204Z,20.36
2018-09-08T05:01:40.132Z,20.40
2018-09-08T05:04:09.369Z,20.39
2018-09-08T05:06:38.295Z,20.45
2018-09-08T05:09:09.848Z,20.51
2018-09-08T05:11:38.648Z,20.59
2018-09-08T05:14:07.706Z,20.65
2018-09-08T05:16:36.758Z,20.67
2018-09-08T05:19:06.495Z,20.83
2018-09-08T05:21:35.299Z,20.94
2018-09-08T05:24:04.305Z,21.05
2018-09-08T05:26:33.267Z,21.15
2018-09-08T05:29:02.195Z,21.21
2018-09-08T05:31:31.376Z,21.30
2018-09-08T05:34:00.396Z,21.40
2018-09-08T05:36:29.319Z,21.49
2018-09-08T05:39:00.213Z,21.57
2018-09-08T05:41:29.319Z,21.68
2018-09-08T05:43:58.302Z,21.76
2018-09-08T05:48:55.340Z,22.04
2018-09-08T05:51:24.187Z,22.18
2018-09-08T05:53:53.237Z,22.31
2018-09-08T05:56:22.558Z,22.43
2018-09-08T05:58:51.435Z,22.55
2018-09-08T06:01:20.759Z,22.62
2018-09-08T06:03:49.551Z,22.67
2018-09-08T06:06:18.614Z,22.76
2018-09-08T06:08:49.754Z,22.84
2018-09-08T06:11:20.015Z,22.95
2018-09-08T06:13:48.884Z,23.05
2018-09-08T06:16:17.960Z,23.15
2018-09-08T06:18:50.180Z,23.25
2018-09-08T06:21:19.190Z,23.34
2018-09-08T06:23:48.012Z,23.44
2018-09-08T06:26:17.379Z,23.48
2018-09-08T06:28:50.224Z,23.63
2018-09-08T06:31:19.041Z,23.71
2018-09-08T06:33:48.240Z,23.87
2018-09-08T06:36:17.276Z,23.99
2018-09-08T06:38:46.240Z,23.99
2018-09-08T06:41:15.144Z,24.17
2018-09-08T06:43:44.102Z,24.23
2018-09-08T06:46:13.049Z,24.40
2018-09-08T06:48:41.877Z,24.47
2018-09-08T06:51:11.009Z,24.55
2018-09-08T06:53:39.986Z,24.61
2018-09-08T06:56:08.890Z,24.77
2018-09-08T06:58:37.804Z,24.92
2018-09-08T07:01:06.956Z,25.07
2018-09-08T07:03:39.529Z,25.14
2018-09-08T07:06:08.394Z,25.11
2018-09-08T07:08:37.397Z,25.08
2018-09-08T07:11:06.638Z,25.18
2018-09-08T07:13:36.113Z,25.30
2018-09-08T07:16:05.027Z,25.39
2018-09-08T07:18:34.094Z,25.49
2018-09-08T07:21:02.993Z,25.45
2018-09-08T07:23:32.421Z,25.51
2018-09-08T07:26:01.393Z,25.58
2018-09-08T07:28:30.568Z,25.62
2018-09-08T07:30:59.416Z,25.67
2018-09-08T07:33:28.889Z,25.81
2018-09-08T07:35:57.689Z,25.94
2018-09-08T07:38:26.633Z,26.04
2018-09-08T07:40:55.779Z,26.24
2018-09-08T07:43:24.865Z,26.36
2018-09-08T07:45:53.983Z,26.44
2018-09-08T07:48:23.076Z,26.65
2018-09-08T07:50:51.872Z,26.79
2018-09-08T07:55:58.854Z,27.26
2018-09-08T07:58:27.957Z,27.33
2018-09-08T08:00:57.030Z,27.30
2018-09-08T08:03:26.084Z,27.40
2018-09-08T08:05:55.057Z,27.32
2018-09-08T08:08:23.987Z,27.30
2018-09-08T08:10:53.794Z,27.56
2018-09-08T08:13:22.929Z,27.62
2018-09-08T08:15:51.862Z,27.74
2018-09-08T08:18:21.169Z,27.71
2018-09-08T08:20:50.130Z,27.90
2018-09-08T08:23:19.085Z,28.12
2018-09-08T08:25:48.107Z,28.34
2018-09-08T08:28:17.020Z,28.50
2018-09-08T08:30:45.963Z,28.54
2018-09-08T08:33:14.884Z,28.86
2018-09-08T08:35:43.789Z,29.03
2018-09-08T08:38:12.741Z,29.38
2018-09-08T08:40:42.082Z,29.56
2018-09-08T08:43:11.014Z,29.51
2018-09-08T08:45:40.143Z,29.72
2018-09-08T08:48:09.362Z,29.65
2018-09-08T08:50:49.012Z,29.82
2018-09-08T08:53:31.069Z,29.61
2018-09-08T08:55:59.916Z,29.57
2018-09-08T08:58:28.844Z,29.51
2018-09-08T09:00:57.863Z,29.66
2018-09-08T09:03:26.720Z,30.03
2018-09-08T09:05:55.681Z,30.29
2018-09-08T09:08:25.457Z,30.40
2018-09-08T09:10:53.981Z,30.59
2018-09-08T09:13:22.924Z,30.40
2018-09-08T09:15:51.950Z,30.58
2018-09-08T09:19:32.930Z,30.75
2018-09-08T09:22:13.302Z,30.91
2018-09-08T09:24:51.415Z,30.88
2018-09-08T09:27:20.009Z,30.65
2018-09-08T09:29:48.938Z,30.78
2018-09-08T09:32:17.832Z,31.06
2018-09-08T09:34:47.080Z,31.49
2018-09-08T09:37:16.095Z,32.11
2018-09-08T09:39:45.125Z,32.45
2018-09-08T09:42:14.574Z,32.37
2018-09-08T09:44:43.477Z,32.07
2018-09-08T09:47:12.479Z,31.73
2018-09-08T09:49:41.404Z,31.86
2018-09-08T09:52:10.392Z,32.00
2018-09-08T09:54:39.413Z,31.75
2018-09-08T09:57:08.487Z,31.92
2018-09-08T09:59:37.433Z,31.57
2018-09-08T10:03:12.122Z,31.78
2018-09-08T10:05:41.093Z,31.64
2018-09-08T10:08:10.061Z,31.89
2018-09-08T10:10:39.492Z,32.18
2018-09-08T10:13:08.373Z,32.20
2018-09-08T10:15:37.190Z,32.20
2018-09-08T10:18:06.160Z,32.27
2018-09-08T10:20:35.013Z,31.94
2018-09-08T10:23:04.036Z,31.63
2018-09-08T10:25:33.028Z,31.44
2018-09-08T10:28:01.888Z,31.09
2018-09-08T10:30:30.807Z,31.07
2018-09-08T10:32:59.745Z,31.14
2018-09-08T10:35:28.631Z,31.14
2018-09-08T10:37:57.539Z,31.27
2018-09-08T10:40:27.021Z,31.09
2018-09-08T10:42:55.909Z,31.13
2018-09-08T10:45:24.994Z,30.84
2018-09-08T10:47:54.278Z,30.91
2018-09-08T10:50:23.343Z,30.85
2018-09-08T10:52:52.373Z,30.96
2018-09-08T10:55:27.014Z,30.74
2018-09-08T10:57:55.857Z,30.78
2018-09-08T11:00:24.906Z,30.67
2018-09-08T11:02:54.636Z,30.59
2018-09-08T11:05:23.272Z,30.43
2018-09-08T11:07:52.195Z,30.32
2018-09-08T11:10:21.661Z,30.41
2018-09-08T11:12:50.527Z,30.42
2018-09-08T11:15:19.584Z,30.66
2018-09-08T11:17:48.996Z,30.79
2018-09-08T11:20:17.834Z,30.71
2018-09-08T11:22:46.804Z,30.70
2018-09-08T11:25:15.686Z,30.67
2018-09-08T11:27:44.581Z,30.73
2018-09-08T11:30:13.591Z,30.80
2018-09-08T11:32:43.051Z,30.90
2018-09-08T11:35:11.966Z,30.98
2018-09-08T11:37:40.977Z,31.05
2018-09-08T11:40:10.331Z,31.03
2018-09-08T11:42:39.190Z,31.00
2018-09-08T11:45:11.804Z,30.96
2018-09-08T11:47:40.709Z,30.85
2018-09-08T11:50:09.553Z,30.86
2018-09-08T11:52:38.858Z,31.13
2018-09-08T11:55:07.734Z,31.22
2018-09-08T11:57:36.604Z,31.10
2018-09-08T12:00:06.539Z,30.92
2018-09-08T12:02:35.422Z,31.21
2018-09-08T12:05:04.362Z,31.43
2018-09-08T12:07:33.733Z,31.62
2018-09-08T12:10:02.716Z,31.71
2018-09-08T12:12:31.714Z,31.75
2018-09-08T12:15:00.662Z,31.69
2018-09-08T12:17:29.650Z,31.64
2018-09-08T12:19:58.585Z,31.52
2018-09-08T12:22:27.388Z,31.61
2018-09-08T12:24:56.211Z,31.53
2018-09-08T12:27:25.145Z,31.36
2018-09-08T12:29:54.177Z,31.50
2018-09-08T12:32:23.059Z,31.54
2018-09-08T12:34:52.042Z,31.58
2018-09-08T12:37:21.115Z,31.48
2018-09-08T12:39:50.091Z,31.48
2018-09-08T12:42:19.022Z,31.61
2018-09-08T12:44:47.982Z,31.74
2018-09-08T12:47:16.829Z,31.52
2018-09-08T12:49:45.730Z,31.63
2018-09-08T12:52:14.665Z,31.64
2018-09-08T12:54:43.620Z,31.48
2018-09-08T12:57:12.542Z,31.32
2018-09-08T12:59:41.853Z,31.46
2018-09-08T13:02:10.716Z,31.55
2018-09-08T13:04:39.633Z,31.57
2018-09-08T13:07:09.022Z,31.81
2018-09-08T13:09:37.949Z,31.90
2018-09-08T13:12:06.925Z,31.94
2018-09-08T13:14:36.262Z,31.76
2018-09-08T13:17:05.178Z,31.76
2018-09-08T13:19:34.097Z,31.69
2018-09-08T13:22:06.384Z,31.51
2018-09-08T13:24:35.336Z,31.31
2018-09-08T13:27:07.870Z,31.06
2018-09-08T13:29:37.256Z,31.06
2018-09-08T13:32:06.248Z,30.81
2018-09-08T13:34:35.203Z,30.75
2018-09-08T13:37:04.193Z,30.58
2018-09-08T13:39:33.222Z,30.43
2018-09-08T13:42:02.696Z,30.11
2018-09-08T13:44:31.669Z,29.83
2018-09-08T13:47:00.686Z,29.47
2018-09-08T13:49:30.114Z,29.23
2018-09-08T13:51:59.028Z,29.05
2018-09-08T13:54:28.296Z,28.97
2018-09-08T13:56:57.237Z,28.97
2018-09-08T13:59:26.520Z,29.01
2018-09-08T14:01:55.380Z,29.11
2018-09-08T14:04:24.668Z,29.20
2018-09-08T14:06:53.560Z,29.30
2018-09-08T14:09:22.602Z,29.45
2018-09-08T14:11:51.777Z,29.56
2018-09-08T14:14:21.708Z,29.55
2018-09-08T14:16:50.627Z,29.58
2018-09-08T14:19:20.504Z,29.63
2018-09-08T14:21:49.417Z,29.62
2018-09-08T14:24:18.259Z,29.62
2018-09-08T14:26:47.605Z,29.60
2018-09-08T14:29:16.631Z,29.58
2018-09-08T14:31:45.591Z,29.59
2018-09-08T14:34:15.036Z,29.62
2018-09-08T14:36:44.173Z,29.62
2018-09-08T14:39:13.136Z,29.60
2018-09-08T14:41:42.140Z,29.53
2018-09-08T14:44:11.057Z,29.47
2018-09-08T14:46:40.093Z,29.49
2018-09-08T14:49:09.492Z,29.33
2018-09-08T14:51:38.473Z,29.31
2018-09-08T14:54:07.437Z,29.30
2018-09-08T14:56:37.352Z,29.28
2018-09-08T14:59:06.268Z,29.26
2018-09-08T15:01:35.322Z,29.28
2018-09-08T15:04:04.223Z,29.21
2018-09-08T15:06:33.177Z,29.19
2018-09-08T15:09:02.145Z,29.07
2018-09-08T15:11:31.163Z,29.03
2018-09-08T15:14:00.187Z,28.99
2018-09-08T15:16:29.081Z,28.97
2018-09-08T15:18:59.108Z,28.89
2018-09-08T15:21:31.119Z,28.79
2018-09-08T15:24:00.282Z,28.73
2018-09-08T15:26:30.287Z,28.73
2018-09-08T15:28:59.362Z,28.75
2018-09-08T15:31:29.596Z,28.80
2018-09-08T15:33:58.463Z,28.83
2018-09-08T15:36:27.527Z,28.85
2018-09-08T15:38:56.767Z,28.75
2018-09-08T15:41:25.733Z,28.63
2018-09-08T15:43:54.730Z,28.46
2018-09-08T15:46:23.636Z,28.36
2018-09-08T15:48:52.662Z,28.17
2018-09-08T15:51:21.572Z,28.06
2018-09-08T15:53:50.998Z,27.95
2018-09-08T15:56:19.963Z,27.85
2018-09-08T15:58:48.802Z,27.77
2018-09-08T16:01:18.177Z,27.71
2018-09-08T16:03:47.102Z,27.62
2018-09-08T16:06:15.981Z,27.53
2018-09-08T16:08:44.904Z,27.53
2018-09-08T16:11:13.809Z,27.48
2018-09-08T16:13:46.106Z,27.39
2018-09-08T16:16:15.037Z,27.30
2018-09-08T16:18:44.049Z,27.14
2018-09-08T16:21:13.392Z,27.09
2018-09-08T16:23:42.313Z,26.99
2018-09-08T16:26:11.321Z,26.85
2018-09-08T16:28:40.368Z,26.72
2018-09-08T16:31:09.230Z,26.64
2018-09-08T16:33:38.293Z,26.64
2018-09-08T16:36:07.777Z,26.56
2018-09-08T16:38:40.626Z,26.43
2018-09-08T16:41:10.005Z,26.21
2018-09-08T16:43:39.131Z,26.19
2018-09-08T16:46:08.120Z,26.12
2018-09-08T16:48:37.059Z,26.10
2018-09-08T16:51:06.482Z,26.05
2018-09-08T16:53:35.373Z,26.00
2018-09-08T16:56:04.413Z,25.96
2018-09-08T16:58:33.254Z,25.95
2018-09-08T17:01:02.304Z,25.92
2018-09-08T17:03:32.867Z,25.85
2018-09-08T17:06:01.809Z,25.77
2018-09-08T17:08:30.739Z,25.66
2018-09-08T17:10:59.955Z,25.58
2018-09-08T17:13:28.909Z,25.46
2018-09-08T17:15:57.814Z,25.36
2018-09-08T17:18:27.218Z,25.34
2018-09-08T17:20:56.045Z,25.34
2018-09-08T17:23:25.069Z,25.33
2018-09-08T17:25:54.551Z,25.29
2018-09-08T17:28:23.590Z,25.24
2018-09-08T17:30:52.645Z,25.19
2018-09-08T17:33:21.978Z,25.16
2018-09-08T17:35:50.904Z,25.11
2018-09-08T17:38:19.866Z,25.06
2018-09-08T17:40:48.762Z,25.00
2018-09-08T17:43:17.595Z,24.95
2018-09-08T17:45:46.451Z,24.89
2018-09-08T17:48:15.897Z,24.83
2018-09-08T17:50:44.790Z,24.75
2018-09-08T17:53:13.674Z,24.74
2018-09-08T17:55:43.192Z,24.75
2018-09-08T17:58:12.197Z,24.69
2018-09-08T18:00:40.963Z,24.63
2018-09-08T18:03:10.009Z,24.63
2018-09-08T18:05:39.118Z,24.57
2018-09-08T18:08:07.953Z,24.56
2018-09-08T18:10:36.998Z,24.48
2018-09-08T18:13:06.510Z,24.47
2018-09-08T18:15:39.035Z,24.38
2018-09-08T18:18:08.030Z,24.30
2018-09-08T18:20:36.854Z,24.27
2018-09-08T18:23:05.885Z,24.12
2018-09-08T18:25:34.832Z,24.08
2018-09-08T18:28:03.677Z,23.97
2018-09-08T18:30:32.638Z,23.85
2018-09-08T18:33:01.562Z,23.85
2018-09-08T18:35:30.497Z,23.80
2018-09-08T18:37:59.518Z,23.71
2018-09-08T18:40:28.566Z,23.70
2018-09-08T18:42:57.576Z,23.74
2018-09-08T18:45:26.517Z,23.66
2018-09-08T18:47:55.540Z,23.70
2018-09-08T18:50:24.350Z,23.70
2018-09-08T18:52:57.078Z,23.64
2018-09-08T18:55:26.009Z,23.65
2018-09-08T18:57:54.878Z,23.55
2018-09-08T19:00:27.398Z,23.45
2018-09-08T19:02:56.295Z,23.49
2018-09-08T19:05:25.141Z,23.56
2018-09-08T19:07:54.417Z,23.54
2018-09-08T19:10:23.382Z,23.51
2018-09-08T19:12:52.314Z,23.46
2018-09-08T19:15:21.428Z,23.47
2018-09-08T19:17:51.102Z,23.43
2018-09-08T19:20:25.115Z,23.43
2018-09-08T19:22:53.961Z,23.38
2018-09-08T19:25:22.963Z,23.31
2018-09-08T19:27:52.330Z,23.29
2018-09-08T19:30:21.349Z,23.29
2018-09-08T19:32:50.445Z,23.29
2018-09-08T19:35:24.589Z,23.26
2018-09-08T19:37:53.503Z,23.25
2018-09-08T19:40:27.412Z,23.24
2018-09-08T19:42:56.805Z,23.23
2018-09-08T19:45:25.670Z,23.27
2018-09-08T19:48:00.148Z,23.25
2018-09-08T19:50:29.167Z,23.20
2018-09-08T19:53:03.560Z,23.11
2018-09-08T19:55:32.520Z,23.14
2018-09-08T19:58:07.073Z,23.13
2018-09-08T20:00:36.044Z,23.08
2018-09-08T20:03:05.004Z,23.08
2018-09-08T20:05:34.322Z,23.12
2018-09-08T20:08:03.200Z,23.13
2018-09-08T20:10:32.080Z,23.12
2018-09-08T20:13:01.024Z,23.09
2018-09-08T20:15:30.057Z,23.07
2018-09-08T20:17:58.896Z,23.06
2018-09-08T20:20:27.956Z,22.94
2018-09-08T20:22:56.992Z,22.97
2018-09-08T20:25:25.909Z,22.99
2018-09-08T20:27:54.902Z,22.95
2018-09-08T20:30:23.786Z,22.94
2018-09-08T20:32:52.876Z,22.94
2018-09-08T20:35:22.095Z,22.92
2018-09-08T20:37:51.066Z,22.90
2018-09-08T20:40:20.068Z,22.92
2018-09-08T20:42:49.483Z,22.91
2018-09-08T20:45:18.438Z,22.93
2018-09-08T20:47:47.645Z,22.92
2018-09-08T20:50:17.131Z,22.89
2018-09-08T20:52:46.681Z,22.83
2018-09-08T20:55:15.692Z,22.83
2018-09-08T20:57:44.864Z,22.81
2018-09-08T21:00:13.797Z,22.81
2018-09-08T21:02:42.698Z,22.80
2018-09-08T21:05:11.739Z,22.80
2018-09-08T21:07:40.716Z,22.77
2018-09-08T21:10:09.648Z,22.80
2018-09-08T21:12:38.514Z,22.77
2018-09-08T21:15:07.738Z,22.79
2018-09-08T21:17:36.606Z,22.82
2018-09-08T21:20:05.997Z,22.81
2018-09-08T21:22:34.889Z,22.85
2018-09-08T21:25:03.853Z,22.84
2018-09-08T21:27:33.320Z,22.84
2018-09-08T21:30:02.262Z,22.80
2018-09-08T21:32:31.113Z,22.78
2018-09-08T21:35:00.437Z,22.77
2018-09-08T21:37:29.790Z,22.73
2018-09-08T21:40:01.858Z,22.67
2018-09-08T21:42:30.655Z,22.66
2018-09-08T21:44:59.506Z,22.64
2018-09-08T21:47:28.766Z,22.66
2018-09-08T21:49:57.696Z,22.61
2018-09-08T21:52:26.787Z,22.61
2018-09-08T21:54:56.054Z,22.58
2018-09-08T21:57:24.987Z,22.57
2018-09-08T21:59:54.033Z,22.56
2018-09-08T22:02:23.322Z,22.60
2018-09-08T22:04:55.445Z,22.58
2018-09-08T22:07:24.777Z,22.65
2018-09-08T22:09:53.735Z,22.65
2018-09-08T22:12:23.012Z,22.66
2018-09-08T22:14:52.405Z,22.68
2018-09-08T22:17:21.681Z,22.71
2018-09-08T22:19:50.561Z,22.68
2018-09-08T22:22:19.768Z,22.70
2018-09-08T22:24:48.794Z,22.65
2018-09-08T22:27:17.621Z,22.64
2018-09-08T22:29:49.002Z,22.63
2018-09-08T22:32:17.996Z,22.59
2018-09-08T22:34:46.981Z,22.57
2018-09-08T22:37:15.952Z,22.52
2018-09-08T22:39:44.891Z,22.46
2018-09-08T22:42:13.715Z,22.42
2018-09-08T22:44:43.029Z,22.39
2018-09-08T22:47:12.240Z,22.36
2018-09-08T22:49:41.267Z,22.34
2018-09-08T22:52:10.255Z,22.33
2018-09-08T22:54:42.975Z,22.32
2018-09-08T22:57:11.963Z,22.32
2018-09-08T22:59:40.895Z,22.31
2018-09-08T23:02:09.780Z,22.28
2018-09-08T23:04:39.169Z,22.25
2018-09-08T23:07:08.146Z,22.23
2018-09-08T23:09:37.064Z,22.22
2018-09-08T23:12:06.287Z,22.20
2018-09-08T23:14:35.346Z,22.20
2018-09-08T23:17:04.279Z,22.18
2018-09-08T23:19:33.738Z,22.20
2018-09-08T23:22:02.628Z,22.18
2018-09-08T23:24:31.524Z,22.18
2018-09-08T23:27:00.700Z,22.17
2018-09-08T23:29:29.627Z,22.20
2018-09-08T23:31:58.457Z,22.20
2018-09-08T23:34:27.760Z,22.18
2018-09-08T23:36:56.748Z,22.22
2018-09-08T23:39:25.693Z,22.23
2018-09-08T23:41:54.662Z,22.21
2018-09-08T23:44:23.513Z,22.20
2018-09-08T23:46:52.445Z,22.22
2018-09-08T23:49:21.493Z,22.21
2018-09-08T23:51:50.406Z,22.21
2018-09-08T23:54:19.404Z,22.19
2018-09-08T23:56:48.786Z,22.22
2018-09-08T23:59:17.678Z,22.19
